sensor_id;sensor_type;location;lat;lon;timestamp;pressure;altitude;pressure_sealevel;temperature;humidity
21109;BME280;10712;52.944;9.098;2022-12-18T00:01:53;102884.84;;;0.35;43.13
21109;BME280;10712;52.944;9.098;2022-12-18T00:04:23;102890.09;;;0.35;43.46
21109;BME280;10712;52.944;9.098;2022-12-18T00:06:50;102892.72;;;0.33;43.26
21109;BME280;10712;52.944;9.098;2022-12-18T00:09:16;102890.94;;;0.32;43.33
21109;BME280;10712;52.944;9.098;2022-12-18T00:11:42;102893.59;;;0.34;43.61
21109;BME280;10712;52.944;9.098;2022-12-18T00:14:09;102903.22;;;0.33;43.30
21109;BME280;10712;52.944;9.098;2022-12-18T00:16:36;102897.81;;;0.26;43.31
21109;BME280;10712;52.944;9.098;2022-12-18T00:19:03;102899.38;;;0.16;43.04
21109;BME280;10712;52.944;9.098;2022-12-18T00:21:30;102901.09;;;0.16;43.00
21109;BME280;10712;52.944;9.098;2022-12-18T00:23:57;102901.09;;;0.16;43.39
21109;BME280;10712;52.944;9.098;2022-12-18T00:26:30;102902.00;;;0.16;43.29
21109;BME280;10712;52.944;9.098;2022-12-18T00:29:02;102895.00;;;0.17;43.07
21109;BME280;10712;52.944;9.098;2022-12-18T00:31:29;102904.66;;;0.18;43.07
21109;BME280;10712;52.944;9.098;2022-12-18T00:33:56;102901.09;;;0.16;43.00
21109;BME280;10712;52.944;9.098;2022-12-18T00:36:28;102900.25;;;0.17;43.10
21109;BME280;10712;52.944;9.098;2022-12-18T00:38:56;102895.81;;;0.14;43.22
21109;BME280;10712;52.944;9.098;2022-12-18T00:41:22;102901.97;;;0.13;43.19
21109;BME280;10712;52.944;9.098;2022-12-18T00:44:09;102900.22;;;0.14;43.03
21109;BME280;10712;52.944;9.098;2022-12-18T00:46:35;102905.38;;;0.11;43.08
21109;BME280;10712;52.944;9.098;2022-12-18T00:49:01;102908.63;;;-0.03;42.99
21109;BME280;10712;52.944;9.098;2022-12-18T00:51:27;102908.38;;;-0.15;43.06
21109;BME280;10712;52.944;9.098;2022-12-18T00:53:53;102909.22;;;-0.16;43.10
21109;BME280;10712;52.944;9.098;2022-12-18T00:56:19;102904.97;;;-0.11;43.07
21109;BME280;10712;52.944;9.098;2022-12-18T00:58:44;102901.50;;;-0.10;43.24
21109;BME280;10712;52.944;9.098;2022-12-18T01:01:10;102899.78;;;-0.08;43.19
21109;BME280;10712;52.944;9.098;2022-12-18T01:03:36;102902.41;;;-0.06;43.16
21109;BME280;10712;52.944;9.098;2022-12-18T01:06:12;102899.91;;;-0.02;42.85
21109;BME280;10712;52.944;9.098;2022-12-18T01:08:38;102903.44;;;0.00;43.02
21109;BME280;10712;52.944;9.098;2022-12-18T01:11:12;102900.81;;;-0.01;43.05
21109;BME280;10712;52.944;9.098;2022-12-18T01:13:39;102912.16;;;-0.01;43.11
21109;BME280;10712;52.944;9.098;2022-12-18T01:16:05;102900.81;;;-0.01;43.16
21109;BME280;10712;52.944;9.098;2022-12-18T01:18:34;102900.81;;;-0.01;43.12
21109;BME280;10712;52.944;9.098;2022-12-18T01:21:00;102906.97;;;0.03;43.03
21109;BME280;10712;52.944;9.098;2022-12-18T01:23:30;102903.56;;;0.07;42.96
21109;BME280;10712;52.944;9.098;2022-12-18T01:25:56;102915.78;;;0.08;43.00
21109;BME280;10712;52.944;9.098;2022-12-18T01:28:21;102919.34;;;0.10;43.35
21109;BME280;10712;52.944;9.098;2022-12-18T01:30:47;102909.72;;;0.09;43.38
21109;BME280;10712;52.944;9.098;2022-12-18T01:33:13;102921.16;;;0.12;43.00
21109;BME280;10712;52.944;9.098;2022-12-18T01:35:42;102926.47;;;0.17;42.86
21109;BME280;10712;52.944;9.098;2022-12-18T01:38:09;102927.28;;;0.14;43.15
21109;BME280;10712;52.944;9.098;2022-12-18T01:40:34;102929.09;;;0.17;43.02
21109;BME280;10712;52.944;9.098;2022-12-18T01:43:00;102925.66;;;0.19;42.98
21109;BME280;10712;52.944;9.098;2022-12-18T01:45:28;102930.00;;;0.19;43.38
21109;BME280;10712;52.944;9.098;2022-12-18T01:48:06;102941.34;;;0.18;43.26
21109;BME280;10712;52.944;9.098;2022-12-18T01:50:38;102937.84;;;0.17;43.06
21109;BME280;10712;52.944;9.098;2022-12-18T01:53:12;102943.88;;;0.15;43.02
21109;BME280;10712;52.944;9.098;2022-12-18T01:55:43;102942.94;;;0.10;43.13
21109;BME280;10712;52.944;9.098;2022-12-18T01:58:10;102936.72;;;0.05;42.88
21109;BME280;10712;52.944;9.098;2022-12-18T02:00:36;102939.31;;;0.03;43.42
21109;BME280;10712;52.944;9.098;2022-12-18T02:03:02;102931.41;;;0.02;43.01
21109;BME280;10712;52.944;9.098;2022-12-18T02:05:36;102929.63;;;0.00;43.28
21109;BME280;10712;52.944;9.098;2022-12-18T02:16:40;102920.88;;;-0.02;42.92
21109;BME280;10712;52.944;9.098;2022-12-18T02:22:45;102906.84;;;-0.04;43.00
21109;BME280;10712;52.944;9.098;2022-12-18T02:25:40;102922.56;;;-0.04;42.93
21109;BME280;10712;52.944;9.098;2022-12-18T02:28:13;102931.25;;;-0.08;42.96
21109;BME280;10712;52.944;9.098;2022-12-18T02:30:42;102931.97;;;-0.15;43.16
21109;BME280;10712;52.944;9.098;2022-12-18T02:33:09;102928.34;;;-0.20;43.10
21109;BME280;10712;52.944;9.098;2022-12-18T02:35:38;102925.72;;;-0.20;43.19
21109;BME280;10712;52.944;9.098;2022-12-18T02:38:07;102926.56;;;-0.22;43.26
21109;BME280;10712;52.944;9.098;2022-12-18T02:40:36;102929.16;;;-0.24;43.28
21109;BME280;10712;52.944;9.098;2022-12-18T02:43:15;102946.50;;;-0.29;43.31
21109;BME280;10712;52.944;9.098;2022-12-18T02:45:54;102924.59;;;-0.32;43.36
21109;BME280;10712;52.944;9.098;2022-12-18T02:48:24;102930.72;;;-0.32;43.20
21109;BME280;10712;52.944;9.098;2022-12-18T02:53:28;102916.78;;;-0.31;43.33
21109;BME280;10712;52.944;9.098;2022-12-18T02:56:07;102920.22;;;-0.32;43.03
21109;BME280;10712;52.944;9.098;2022-12-18T02:59:00;102918.47;;;-0.33;43.04
21109;BME280;10712;52.944;9.098;2022-12-18T03:04:34;102927.25;;;-0.31;43.25
21109;BME280;10712;52.944;9.098;2022-12-18T03:07:09;102927.25;;;-0.31;43.17
21109;BME280;10712;52.944;9.098;2022-12-18T03:09:42;102930.59;;;-0.38;42.77
21109;BME280;10712;52.944;9.098;2022-12-18T03:12:22;102940.97;;;-0.41;42.81
21109;BME280;10712;52.944;9.098;2022-12-18T03:15:00;102937.50;;;-0.40;42.96
21109;BME280;10712;52.944;9.098;2022-12-18T03:17:30;102944.56;;;-0.37;42.79
21109;BME280;10712;52.944;9.098;2022-12-18T03:20:02;102944.66;;;-0.33;42.90
21109;BME280;10712;52.944;9.098;2022-12-18T03:22:32;102939.50;;;-0.30;43.10
21109;BME280;10712;52.944;9.098;2022-12-18T03:25:00;102941.25;;;-0.29;43.00
21109;BME280;10712;52.944;9.098;2022-12-18T03:27:30;102938.66;;;-0.27;42.94
21109;BME280;10712;52.944;9.098;2022-12-18T03:30:04;102937.84;;;-0.25;42.80
21109;BME280;10712;52.944;9.098;2022-12-18T03:32:44;102937.94;;;-0.22;42.81
21109;BME280;10712;52.944;9.098;2022-12-18T03:35:18;102930.91;;;-0.23;43.02
21109;BME280;10712;52.944;9.098;2022-12-18T03:37:46;102939.63;;;-0.24;42.67
21109;BME280;10712;52.944;9.098;2022-12-18T03:40:12;102944.78;;;-0.27;42.90
21109;BME280;10712;52.944;9.098;2022-12-18T03:43:03;102949.97;;;-0.30;42.78
21109;BME280;10712;52.944;9.098;2022-12-18T03:45:38;102944.72;;;-0.30;42.94
21109;BME280;10712;52.944;9.098;2022-12-18T03:48:17;102939.50;;;-0.30;42.82
21109;BME280;10712;52.944;9.098;2022-12-18T03:53:32;102930.84;;;-0.26;42.67
21109;BME280;10712;52.944;9.098;2022-12-18T03:56:00;102925.59;;;-0.26;42.81
21109;BME280;10712;52.944;9.098;2022-12-18T03:58:37;102927.31;;;-0.28;42.86
21109;BME280;10712;52.944;9.098;2022-12-18T04:01:15;102929.03;;;-0.30;42.88
21109;BME280;10712;52.944;9.098;2022-12-18T04:03:44;102931.56;;;-0.33;42.89
21109;BME280;10712;52.944;9.098;2022-12-18T04:06:12;102929.81;;;-0.32;43.26
21109;BME280;10712;52.944;9.098;2022-12-18T04:08:41;102932.47;;;-0.31;42.87
21109;BME280;10712;52.944;9.098;2022-12-18T04:11:10;102932.47;;;-0.31;42.81
21109;BME280;10712;52.944;9.098;2022-12-18T04:13:37;102934.19;;;-0.33;42.64
21109;BME280;10712;52.944;9.098;2022-12-18T04:16:07;102927.16;;;-0.34;42.76
21109;BME280;10712;52.944;9.098;2022-12-18T04:18:39;102923.69;;;-0.33;42.75
21109;BME280;10712;52.944;9.098;2022-12-18T04:21:05;102908.00;;;-0.33;42.52
21109;BME280;10712;52.944;9.098;2022-12-18T04:23:32;102904.47;;;-0.35;42.61
21109;BME280;10712;52.944;9.098;2022-12-18T04:25:58;102903.59;;;-0.34;42.53
21109;BME280;10712;52.944;9.098;2022-12-18T04:28:42;102904.53;;;-0.32;42.59
21109;BME280;10712;52.944;9.098;2022-12-18T04:31:09;102902.72;;;-0.34;42.83
21109;BME280;10712;52.944;9.098;2022-12-18T04:33:35;102900.94;;;-0.37;42.51
21109;BME280;10712;52.944;9.098;2022-12-18T04:36:02;102908.75;;;-0.38;42.48
21109;BME280;10712;52.944;9.098;2022-12-18T04:38:27;102916.66;;;-0.37;42.54
21109;BME280;10712;52.944;9.098;2022-12-18T04:41:01;102914.88;;;-0.38;42.49
21109;BME280;10712;52.944;9.098;2022-12-18T04:43:27;102926.16;;;-0.41;42.74
21109;BME280;10712;52.944;9.098;2022-12-18T04:45:52;102916.50;;;-0.43;42.84
21109;BME280;10712;52.944;9.098;2022-12-18T04:48:18;102914.66;;;-0.47;42.38
21109;BME280;10712;52.944;9.098;2022-12-18T04:50:46;102925.94;;;-0.51;42.87
21109;BME280;10712;52.944;9.098;2022-12-18T04:53:12;102934.59;;;-0.54;42.73
21109;BME280;10712;52.944;9.098;2022-12-18T04:55:38;102932.81;;;-0.56;42.80
21109;BME280;10712;52.944;9.098;2022-12-18T04:58:03;102935.44;;;-0.56;42.60
21109;BME280;10712;52.944;9.098;2022-12-18T05:00:29;102933.66;;;-0.57;42.71
21109;BME280;10712;52.944;9.098;2022-12-18T05:02:55;102936.19;;;-0.60;42.63
21109;BME280;10712;52.944;9.098;2022-12-18T05:05:20;102936.94;;;-0.66;42.43
21109;BME280;10712;52.944;9.098;2022-12-18T05:07:46;102955.22;;;-0.67;42.53
21109;BME280;10712;52.944;9.098;2022-12-18T05:10:12;102957.84;;;-0.67;42.69
21109;BME280;10712;52.944;9.098;2022-12-18T05:12:37;102952.59;;;-0.67;42.47
21109;BME280;10712;52.944;9.098;2022-12-18T05:15:30;102954.38;;;-0.66;42.61
21109;BME280;10712;52.944;9.098;2022-12-18T05:17:57;102962.22;;;-0.66;42.64
21109;BME280;10712;52.944;9.098;2022-12-18T05:20:23;102959.69;;;-0.63;42.42
21109;BME280;10712;52.944;9.098;2022-12-18T05:22:50;102968.44;;;-0.61;42.45
21109;BME280;10712;52.944;9.098;2022-12-18T05:25:16;102967.59;;;-0.60;42.51
21109;BME280;10712;52.944;9.098;2022-12-18T05:27:41;102973.69;;;-0.61;42.75
21109;BME280;10712;52.944;9.098;2022-12-18T05:30:08;102967.63;;;-0.59;42.82
21109;BME280;10712;52.944;9.098;2022-12-18T05:32:34;102965.09;;;-0.56;42.65
21109;BME280;10712;52.944;9.098;2022-12-18T05:34:59;102965.13;;;-0.54;42.68
21109;BME280;10712;52.944;9.098;2022-12-18T05:37:25;102966.97;;;-0.50;42.54
21109;BME280;10712;52.944;9.098;2022-12-18T05:39:51;102972.25;;;-0.47;42.75
21109;BME280;10712;52.944;9.098;2022-12-18T05:42:16;102963.50;;;-0.49;42.57
21109;BME280;10712;52.944;9.098;2022-12-18T05:44:43;102964.34;;;-0.50;42.56
21109;BME280;10712;52.944;9.098;2022-12-18T05:47:08;102968.66;;;-0.52;42.74
21109;BME280;10712;52.944;9.098;2022-12-18T05:49:34;102972.16;;;-0.52;42.72
21109;BME280;10712;52.944;9.098;2022-12-18T05:52:00;102974.84;;;-0.50;42.73
21109;BME280;10712;52.944;9.098;2022-12-18T05:54:29;102981.84;;;-0.48;43.09
21109;BME280;10712;52.944;9.098;2022-12-18T05:56:54;102985.41;;;-0.46;42.77
21109;BME280;10712;52.944;9.098;2022-12-18T05:59:20;102980.13;;;-0.47;43.08
21109;BME280;10712;52.944;9.098;2022-12-18T06:01:46;102970.50;;;-0.48;43.22
21109;BME280;10712;52.944;9.098;2022-12-18T06:04:12;102968.81;;;-0.46;43.21
21109;BME280;10712;52.944;9.098;2022-12-18T06:06:38;102963.66;;;-0.43;42.95
21109;BME280;10712;52.944;9.098;2022-12-18T06:09:04;102964.53;;;-0.43;43.01
21109;BME280;10712;52.944;9.098;2022-12-18T06:11:36;102963.66;;;-0.43;43.35
21109;BME280;10712;52.944;9.098;2022-12-18T06:14:03;102963.66;;;-0.43;43.12
21109;BME280;10712;52.944;9.098;2022-12-18T06:16:30;102965.34;;;-0.45;43.06
21109;BME280;10712;52.944;9.098;2022-12-18T06:18:59;102968.81;;;-0.46;43.34
21109;BME280;10712;52.944;9.098;2022-12-18T06:21:26;102972.34;;;-0.44;43.17
21109;BME280;10712;52.944;9.098;2022-12-18T06:23:52;102963.78;;;-0.37;43.52
21109;BME280;10712;52.944;9.098;2022-12-18T06:26:18;102969.16;;;-0.31;43.49
21109;BME280;10712;52.944;9.098;2022-12-18T06:28:44;102967.47;;;-0.29;43.31
21109;BME280;10712;52.944;9.098;2022-12-18T06:31:10;102985.00;;;-0.25;43.42
21109;BME280;10712;52.944;9.098;2022-12-18T06:33:37;102977.97;;;-0.26;43.61
21109;BME280;10712;52.944;9.098;2022-12-18T06:36:08;102974.47;;;-0.28;43.53
21109;BME280;10712;52.944;9.098;2022-12-18T06:38:37;102980.66;;;-0.24;43.43
21109;BME280;10712;52.944;9.098;2022-12-18T06:41:20;102984.09;;;-0.25;43.69
21109;BME280;10712;52.944;9.098;2022-12-18T06:43:46;102989.44;;;-0.22;43.51
21109;BME280;10712;52.944;9.098;2022-12-18T06:46:12;102987.69;;;-0.20;43.34
21109;BME280;10712;52.944;9.098;2022-12-18T06:48:38;102992.09;;;-0.21;43.71
21109;BME280;10712;52.944;9.098;2022-12-18T06:51:04;102987.75;;;-0.19;43.63
21109;BME280;10712;52.944;9.098;2022-12-18T06:53:31;102983.44;;;-0.17;43.93
21109;BME280;10712;52.944;9.098;2022-12-18T06:56:05;102997.47;;;-0.15;43.80
21109;BME280;10712;52.944;9.098;2022-12-18T06:58:32;102994.84;;;-0.15;43.99
21109;BME280;10712;52.944;9.098;2022-12-18T07:01:02;102999.28;;;-0.11;44.15
21109;BME280;10712;52.944;9.098;2022-12-18T07:03:28;103004.56;;;-0.09;43.84
21109;BME280;10712;52.944;9.098;2022-12-18T07:05:54;103005.41;;;-0.10;43.80
21109;BME280;10712;52.944;9.098;2022-12-18T07:08:20;102997.50;;;-0.12;43.87
21109;BME280;10712;52.944;9.098;2022-12-18T07:10:46;102999.19;;;-0.14;43.96
21109;BME280;10712;52.944;9.098;2022-12-18T07:13:15;103011.44;;;-0.13;44.10
21109;BME280;10712;52.944;9.098;2022-12-18T07:15:41;103020.22;;;-0.11;43.98
21109;BME280;10712;52.944;9.098;2022-12-18T07:18:07;103017.69;;;-0.08;44.00
21109;BME280;10712;52.944;9.098;2022-12-18T07:20:32;103015.97;;;-0.07;43.99
21109;BME280;10712;52.944;9.098;2022-12-18T07:22:58;103023.03;;;-0.03;44.16
21109;BME280;10712;52.944;9.098;2022-12-18T07:25:24;103020.50;;;0.02;44.34
21109;BME280;10712;52.944;9.098;2022-12-18T07:27:50;103023.22;;;0.06;44.23
21109;BME280;10712;52.944;9.098;2022-12-18T07:30:15;103027.63;;;0.09;44.27
21109;BME280;10712;52.944;9.098;2022-12-18T07:32:41;103037.34;;;0.13;44.21
21109;BME280;10712;52.944;9.098;2022-12-18T07:35:07;103027.75;;;0.15;44.14
21109;BME280;10712;52.944;9.098;2022-12-18T07:37:32;103022.72;;;0.24;44.13
21109;BME280;10712;52.944;9.098;2022-12-18T07:39:58;103022.88;;;0.31;44.20
21109;BME280;10712;52.944;9.098;2022-12-18T07:42:24;103019.56;;;0.40;44.38
21109;BME280;10712;52.944;9.098;2022-12-18T07:44:56;103023.09;;;0.42;44.66
21109;BME280;10712;52.944;9.098;2022-12-18T07:47:22;103018.72;;;0.43;44.73
21109;BME280;10712;52.944;9.098;2022-12-18T07:49:47;103018.78;;;0.46;44.64
21109;BME280;10712;52.944;9.098;2022-12-18T07:52:13;103014.47;;;0.49;44.60
21109;BME280;10712;52.944;9.098;2022-12-18T07:54:39;103012.66;;;0.45;44.86
21109;BME280;10712;52.944;9.098;2022-12-18T07:57:06;103003.09;;;0.47;44.65
21109;BME280;10712;52.944;9.098;2022-12-18T07:59:32;103000.59;;;0.53;44.92
21109;BME280;10712;52.944;9.098;2022-12-18T08:01:57;103006.75;;;0.55;44.77
21109;BME280;10712;52.944;9.098;2022-12-18T08:04:24;102999.75;;;0.54;44.95
21109;BME280;10712;52.944;9.098;2022-12-18T08:06:50;102990.09;;;0.53;45.03
21109;BME280;10712;52.944;9.098;2022-12-18T08:09:16;102986.66;;;0.57;45.03
21109;BME280;10712;52.944;9.098;2022-12-18T08:11:42;102981.50;;;0.60;45.00
21109;BME280;10712;52.944;9.098;2022-12-18T08:14:09;102997.22;;;0.60;45.04
21109;BME280;10712;52.944;9.098;2022-12-18T08:16:35;102988.50;;;0.61;44.91
21109;BME280;10712;52.944;9.098;2022-12-18T08:19:01;102986.78;;;0.63;45.05
21109;BME280;10712;52.944;9.098;2022-12-18T08:21:29;102981.59;;;0.66;45.16
21109;BME280;10712;52.944;9.098;2022-12-18T08:23:57;102993.00;;;0.70;45.15
21109;BME280;10712;52.944;9.098;2022-12-18T08:26:25;102981.75;;;0.74;45.12
21109;BME280;10712;52.944;9.098;2022-12-18T08:28:53;102984.41;;;0.77;45.39
21109;BME280;10712;52.944;9.098;2022-12-18T08:31:20;102981.81;;;0.78;45.48
21109;BME280;10712;52.944;9.098;2022-12-18T08:33:48;102984.47;;;0.80;45.50
21109;BME280;10712;52.944;9.098;2022-12-18T08:36:15;102990.63;;;0.84;45.65
21109;BME280;10712;52.944;9.098;2022-12-18T08:38:41;102990.63;;;0.84;45.43
21109;BME280;10712;52.944;9.098;2022-12-18T08:41:09;102999.41;;;0.84;45.59
21109;BME280;10712;52.944;9.098;2022-12-18T08:43:35;103005.53;;;0.85;45.34
21109;BME280;10712;52.944;9.098;2022-12-18T08:46:21;103009.03;;;0.85;45.57
21109;BME280;10712;52.944;9.098;2022-12-18T08:48:49;103003.00;;;0.91;45.66
21109;BME280;10712;52.944;9.098;2022-12-18T08:51:16;102997.94;;;1.00;45.84
21109;BME280;10712;52.944;9.098;2022-12-18T08:53:43;102994.63;;;1.10;45.53
21109;BME280;10712;52.944;9.098;2022-12-18T08:56:10;102992.97;;;1.18;45.76
21109;BME280;10712;52.944;9.098;2022-12-18T08:58:36;102987.84;;;1.26;45.61
21109;BME280;10712;52.944;9.098;2022-12-18T09:01:04;102984.56;;;1.37;45.79
21109;BME280;10712;52.944;9.098;2022-12-18T09:03:30;102979.34;;;1.40;45.97
21109;BME280;10712;52.944;9.098;2022-12-18T09:05:56;102975.03;;;1.45;46.00
21109;BME280;10712;52.944;9.098;2022-12-18T09:08:22;102989.16;;;1.53;46.23
21109;BME280;10712;52.944;9.098;2022-12-18T09:10:49;102980.44;;;1.54;45.96
21109;BME280;10712;52.944;9.098;2022-12-18T09:13:15;102974.47;;;1.68;46.27
21109;BME280;10712;52.944;9.098;2022-12-18T09:15:43;102972.91;;;1.79;46.11
21109;BME280;10712;52.944;9.098;2022-12-18T09:18:09;102965.03;;;1.82;46.16
21109;BME280;10712;52.944;9.098;2022-12-18T09:20:36;102973.00;;;1.88;46.70
21109;BME280;10712;52.944;9.098;2022-12-18T09:23:02;102976.59;;;1.93;46.22
21109;BME280;10712;52.944;9.098;2022-12-18T09:25:29;102974.03;;;2.01;46.56
21109;BME280;10712;52.944;9.098;2022-12-18T09:27:59;102982.00;;;2.05;46.66
21109;BME280;10712;52.944;9.098;2022-12-18T09:30:26;102982.19;;;2.20;46.78
21109;BME280;10712;52.944;9.098;2022-12-18T09:32:54;102969.88;;;2.18;46.73
21109;BME280;10712;52.944;9.098;2022-12-18T09:35:20;102972.56;;;2.22;47.14
21109;BME280;10712;52.944;9.098;2022-12-18T09:37:46;102989.28;;;2.27;47.02
21109;BME280;10712;52.944;9.098;2022-12-18T09:40:18;102989.38;;;2.36;46.73
21109;BME280;10712;52.944;9.098;2022-12-18T09:42:48;102987.66;;;2.38;47.07
21109;BME280;10712;52.944;9.098;2022-12-18T09:45:17;103001.72;;;2.41;47.40
21109;BME280;10712;52.944;9.098;2022-12-18T09:47:45;102996.47;;;2.44;47.18
21109;BME280;10712;52.944;9.098;2022-12-18T09:50:29;102997.44;;;2.49;47.02
21109;BME280;10712;52.944;9.098;2022-12-18T09:52:59;102993.97;;;2.54;47.28
21109;BME280;10712;52.944;9.098;2022-12-18T09:55:48;103001.06;;;2.60;47.35
21109;BME280;10712;52.944;9.098;2022-12-18T09:58:26;102999.34;;;2.65;47.19
21109;BME280;10712;52.944;9.098;2022-12-18T10:00:55;103002.03;;;2.71;47.26
21109;BME280;10712;52.944;9.098;2022-12-18T10:03:21;102998.59;;;2.78;47.20
21109;BME280;10712;52.944;9.098;2022-12-18T10:08:54;103010.97;;;2.87;47.61
21109;BME280;10712;52.944;9.098;2022-12-18T10:14:32;103003.34;;;3.18;47.11
21109;BME280;10712;52.944;9.098;2022-12-18T10:17:22;102998.97;;;3.17;47.29
21109;BME280;10712;52.944;9.098;2022-12-18T10:19:55;102993.69;;;3.14;47.69
21109;BME280;10712;52.944;9.098;2022-12-18T10:22:50;102995.47;;;3.20;47.36
21109;BME280;10712;52.944;9.098;2022-12-18T10:25:25;102993.75;;;3.24;47.48
21109;BME280;10712;52.944;9.098;2022-12-18T10:27:56;102990.25;;;3.25;47.64
21109;BME280;10712;52.944;9.098;2022-12-18T10:30:24;102985.91;;;3.31;47.59
21109;BME280;10712;52.944;9.098;2022-12-18T10:32:51;102982.44;;;3.37;47.45
21109;BME280;10712;52.944;9.098;2022-12-18T10:35:20;102975.50;;;3.49;47.64
21109;BME280;10712;52.944;9.098;2022-12-18T10:38:04;102979.84;;;3.46;47.77
21109;BME280;10712;52.944;9.098;2022-12-18T10:40:30;102971.13;;;3.50;47.87
21109;BME280;10712;52.944;9.098;2022-12-18T10:43:16;102969.38;;;3.55;47.91
21109;BME280;10712;52.944;9.098;2022-12-18T10:56:20;102951.91;;;3.75;47.80
21109;BME280;10712;52.944;9.098;2022-12-18T10:58:56;102952.81;;;3.80;47.49
21109;BME280;10712;52.944;9.098;2022-12-18T11:01:22;102954.63;;;3.84;48.09
21109;BME280;10712;52.944;9.098;2022-12-18T11:06:22;102948.50;;;3.91;47.93
21109;BME280;10712;52.944;9.098;2022-12-18T11:11:24;102945.00;;;3.99;47.83
21109;BME280;10712;52.944;9.098;2022-12-18T11:14:03;102939.72;;;4.02;48.13
21109;BME280;10712;52.944;9.098;2022-12-18T11:16:34;102935.34;;;4.02;47.88
21109;BME280;10712;52.944;9.098;2022-12-18T11:21:52;102925.72;;;4.18;48.01
21109;BME280;10712;52.944;9.098;2022-12-18T11:24:20;102918.75;;;4.38;47.81
21109;BME280;10712;52.944;9.098;2022-12-18T11:26:48;102917.00;;;4.34;47.96
21109;BME280;10712;52.944;9.098;2022-12-18T11:29:19;102909.06;;;4.45;48.10
21109;BME280;10712;52.944;9.098;2022-12-18T11:31:48;102895.03;;;4.49;48.31
21109;BME280;10712;52.944;9.098;2022-12-18T11:34:23;102889.75;;;4.53;48.64
21109;BME280;10712;52.944;9.098;2022-12-18T11:36:52;102892.38;;;4.71;48.57
21109;BME280;10712;52.944;9.098;2022-12-18T11:44:59;102894.16;;;4.80;48.32
21109;BME280;10712;52.944;9.098;2022-12-18T11:47:38;102899.41;;;5.06;48.20
21109;BME280;10712;52.944;9.098;2022-12-18T11:50:14;102892.38;;;5.11;48.08
21109;BME280;10712;52.944;9.098;2022-12-18T11:52:41;102876.53;;;5.11;48.23
21109;BME280;10712;52.944;9.098;2022-12-18T11:55:12;102867.69;;;5.24;48.00
21109;BME280;10712;52.944;9.098;2022-12-18T11:57:48;102857.94;;;5.41;47.75
21109;BME280;10712;52.944;9.098;2022-12-18T12:00:20;102847.38;;;5.43;47.96
21109;BME280;10712;52.944;9.098;2022-12-18T12:05:37;102839.38;;;5.60;47.56
21109;BME280;10712;52.944;9.098;2022-12-18T12:08:15;102830.53;;;5.64;47.66
21109;BME280;10712;52.944;9.098;2022-12-18T12:16:13;102821.75;;;5.59;47.54
21109;BME280;10712;52.944;9.098;2022-12-18T12:27:08;102816.38;;;5.80;47.42
21109;BME280;10712;52.944;9.098;2022-12-18T12:29:47;102822.53;;;5.79;47.28
21109;BME280;10712;52.944;9.098;2022-12-18T12:40:35;102803.97;;;5.85;47.34
21109;BME280;10712;52.944;9.098;2022-12-18T12:43:10;102803.13;;;5.87;47.12
21109;BME280;10712;52.944;9.098;2022-12-18T12:45:53;102807.50;;;5.81;47.66
21109;BME280;10712;52.944;9.098;2022-12-18T12:48:46;102801.34;;;5.82;47.37
21109;BME280;10712;52.944;9.098;2022-12-18T12:51:20;102790.75;;;5.83;47.10
21109;BME280;10712;52.944;9.098;2022-12-18T12:53:47;102789.88;;;5.83;47.14
21109;BME280;10712;52.944;9.098;2022-12-18T12:56:16;102782.81;;;5.89;47.25
21109;BME280;10712;52.944;9.098;2022-12-18T12:59:08;102782.81;;;5.86;47.29
21109;BME280;10712;52.944;9.098;2022-12-18T13:01:51;102789.88;;;5.83;47.23
21109;BME280;10712;52.944;9.098;2022-12-18T13:04:45;102789.03;;;5.76;47.19
21109;BME280;10712;52.944;9.098;2022-12-18T13:13:06;102775.75;;;5.91;46.98
21109;BME280;10712;52.944;9.098;2022-12-18T13:18:05;102771.34;;;5.89;47.26
21109;BME280;10712;52.944;9.098;2022-12-18T13:20:36;102797.84;;;5.87;47.25
21109;BME280;10712;52.944;9.098;2022-12-18T13:25:49;102784.56;;;5.90;47.11
21109;BME280;10712;52.944;9.098;2022-12-18T13:31:09;102760.72;;;5.97;47.57
21109;BME280;10712;52.944;9.098;2022-12-18T13:33:45;102751.00;;;6.00;47.26
21109;BME280;10712;52.944;9.098;2022-12-18T13:38:44;102749.31;;;5.90;47.54
21109;BME280;10712;52.944;9.098;2022-12-18T13:41:26;102744.00;;;5.90;47.22
21109;BME280;10712;52.944;9.098;2022-12-18T13:46:48;102749.25;;;5.96;47.15
21109;BME280;10712;52.944;9.098;2022-12-18T13:49:24;102759.84;;;5.99;47.34
21109;BME280;10712;52.944;9.098;2022-12-18T13:51:54;102760.72;;;5.95;47.43
21109;BME280;10712;52.944;9.098;2022-12-18T13:54:34;102759.88;;;5.88;47.39
21109;BME280;10712;52.944;9.098;2022-12-18T13:57:03;102749.31;;;5.93;47.54
21109;BME280;10712;52.944;9.098;2022-12-18T13:59:39;102740.38;;;6.03;47.39
21109;BME280;10712;52.944;9.098;2022-12-18T14:02:20;102733.38;;;5.99;47.26
21109;BME280;10712;52.944;9.098;2022-12-18T14:04:49;102706.00;;;6.02;47.46
21109;BME280;10712;52.944;9.098;2022-12-18T14:07:23;102703.34;;;6.06;47.05
21109;BME280;10712;52.944;9.098;2022-12-18T14:09:59;102705.22;;;5.92;47.24
21109;BME280;10712;52.944;9.098;2022-12-18T14:12:30;102704.22;;;6.05;46.83
21109;BME280;10712;52.944;9.098;2022-12-18T14:15:36;102710.44;;;6.01;46.58
21109;BME280;10712;52.944;9.098;2022-12-18T14:18:56;102703.22;;;6.21;46.24
21109;BME280;10712;52.944;9.098;2022-12-18T14:21:29;102696.28;;;6.02;46.55
21109;BME280;10712;52.944;9.098;2022-12-18T14:24:18;102691.88;;;6.06;46.30
21109;BME280;10712;52.944;9.098;2022-12-18T14:26:46;102701.56;;;6.05;46.35
21109;BME280;10712;52.944;9.098;2022-12-18T14:29:30;102694.50;;;6.07;46.38
21109;BME280;10712;52.944;9.098;2022-12-18T14:32:17;102697.97;;;6.15;45.64
21109;BME280;10712;52.944;9.098;2022-12-18T14:34:49;102690.84;;;6.22;45.68
21109;BME280;10712;52.944;9.098;2022-12-18T14:37:20;102686.34;;;6.30;45.33
21109;BME280;10712;52.944;9.098;2022-12-18T14:40:13;102696.28;;;6.08;45.52
21109;BME280;10712;52.944;9.098;2022-12-18T14:42:39;102690.88;;;6.17;45.25
21109;BME280;10712;52.944;9.098;2022-12-18T14:45:35;102686.59;;;6.04;45.42
21109;BME280;10712;52.944;9.098;2022-12-18T14:48:15;102683.00;;;6.11;45.56